Terminal Aerodrome Forecast
Issued by NWS

Home | Current Version | Previous Version | Text Only | Print | Product List | Glossary On
Versions: 1 2 3 4 5 6 7 8 9 10 11 12 13 14 15 16 17 18 19 20 21 22 23 24 25 26 27 28 29 30 31 32 33 34 35 36 37 38 39 40 41 42 43
000
FTUS45 KSLC 211137
TAF36U
TAF
K36U 211137Z 2112/2212 VRB04KT P6SM VCSH SCT025 BKN040
      TEMPO 2112/2115 22010G18KT 4SM -RASN BKN025
     FM211500 21007G14KT 6SM -RASN SCT010 BKN035
     FM211800 21010G18KT P6SM VCSH BKN020 OVC040
     FM220600 35010G18KT P6SM VCSH SCT020 BKN035=

USA.gov is the U.S. government's official web portal to all federal, state and local government web resources and services.